createdAt,value
2019-06-26T00:00:10.768Z,67.37
2019-06-26T00:02:18.172Z,67.54
2019-06-26T00:04:25.628Z,67.02
2019-06-26T00:06:33.374Z,68.05
2019-06-26T00:08:41.090Z,67.06
2019-06-26T00:10:49.047Z,67.06
2019-06-26T00:12:56.697Z,68.09
2019-06-26T00:15:04.234Z,67.91
2019-06-26T00:17:11.590Z,68.16
2019-06-26T00:19:18.984Z,68.16
2019-06-26T00:21:26.351Z,68.93
2019-06-26T00:23:34.871Z,68.84
2019-06-26T00:25:42.842Z,68.60
2019-06-26T00:27:50.225Z,68.33
2019-06-26T00:29:57.559Z,69.00
2019-06-26T00:32:04.955Z,68.78
2019-06-26T00:34:12.427Z,69.69
2019-06-26T00:36:20.293Z,69.85
2019-06-26T00:38:28.069Z,69.90
2019-06-26T00:40:35.922Z,70.52
2019-06-26T00:42:43.705Z,70.64
2019-06-26T00:44:51.516Z,70.27
2019-06-26T00:46:59.273Z,70.33
2019-06-26T00:49:06.817Z,70.27
2019-06-26T00:51:14.601Z,70.69
2019-06-26T00:53:21.987Z,70.91
2019-06-26T00:55:29.336Z,70.17
2019-06-26T00:57:36.989Z,71.14
2019-06-26T00:59:44.549Z,70.71
2019-06-26T01:01:52.599Z,71.14
2019-06-26T01:04:04.435Z,71.06
2019-06-26T01:06:31.007Z,70.75
2019-06-26T01:08:38.707Z,71.07
2019-06-26T01:10:46.349Z,72.05
2019-06-26T01:12:54.664Z,71.92
2019-06-26T01:15:02.395Z,71.89
2019-06-26T01:17:10.143Z,72.15
2019-06-26T01:19:17.909Z,71.42
2019-06-26T01:21:25.666Z,72.44
2019-06-26T01:23:33.379Z,72.52
2019-06-26T01:25:41.280Z,71.56
2019-06-26T01:27:49.478Z,72.85
2019-06-26T01:29:56.961Z,73.44
2019-06-26T01:32:04.627Z,73.70
2019-06-26T01:34:12.394Z,73.01
2019-06-26T01:36:20.074Z,72.58
2019-06-26T01:38:27.527Z,73.74
2019-06-26T01:40:34.879Z,73.79
2019-06-26T01:42:42.290Z,73.20
2019-06-26T01:44:49.702Z,73.85
2019-06-26T01:46:57.081Z,74.05
2019-06-26T01:49:04.675Z,74.49
2019-06-26T01:51:12.284Z,74.64
2019-06-26T01:53:20.009Z,73.38
2019-06-26T01:55:27.699Z,74.44
2019-06-26T01:57:35.611Z,74.91
2019-06-26T01:59:43.323Z,74.54
2019-06-26T02:01:50.725Z,74.43
2019-06-26T02:03:58.126Z,75.30
2019-06-26T02:06:05.634Z,75.14
2019-06-26T02:08:13.068Z,75.10
2019-06-26T02:10:20.935Z,75.65
2019-06-26T02:12:28.383Z,75.66
2019-06-26T02:14:35.813Z,75.57
2019-06-26T02:16:43.504Z,75.88
2019-06-26T02:18:55.335Z,75.51
2019-06-26T02:21:03.205Z,75.74
2019-06-26T02:23:10.952Z,76.30
2019-06-26T02:25:18.916Z,76.15
2019-06-26T02:27:26.742Z,76.02
2019-06-26T02:29:34.551Z,75.93
2019-06-26T02:31:42.028Z,76.31
2019-06-26T02:33:49.470Z,76.23
2019-06-26T02:35:56.765Z,76.37
2019-06-26T02:38:04.171Z,76.40
2019-06-26T02:40:12.359Z,75.64
2019-06-26T02:42:19.799Z,77.07
2019-06-26T02:44:27.225Z,76.89
2019-06-26T02:46:34.712Z,76.87
2019-06-26T02:48:42.110Z,77.27
2019-06-26T02:50:49.993Z,77.59
2019-06-26T02:52:57.717Z,76.09
2019-06-26T02:55:05.860Z,77.29
2019-06-26T02:57:13.308Z,77.05
2019-06-26T02:59:22.063Z,77.01
2019-06-26T03:01:29.807Z,77.39
2019-06-26T03:03:37.523Z,77.62
2019-06-26T03:05:44.854Z,76.82
2019-06-26T03:07:52.427Z,77.46
2019-06-26T03:10:00.152Z,77.76
2019-06-26T03:12:08.599Z,77.55
2019-06-26T03:14:16.292Z,76.98
2019-06-26T03:16:23.640Z,76.87
2019-06-26T03:18:31.013Z,77.55
2019-06-26T03:20:43.844Z,76.81
2019-06-26T03:22:51.364Z,76.67
2019-06-26T03:24:58.772Z,76.76
2019-06-26T03:27:09.038Z,75.52
2019-06-26T03:29:15.656Z,77.40
2019-06-26T03:31:23.185Z,77.36
2019-06-26T03:33:30.609Z,78.04
2019-06-26T03:35:40.730Z,77.36
2019-06-26T03:37:47.652Z,77.16
2019-06-26T03:39:55.369Z,77.31
2019-06-26T03:42:02.845Z,78.61
2019-06-26T03:44:10.320Z,78.56
2019-06-26T03:46:17.773Z,78.35
2019-06-26T03:48:25.177Z,78.01
2019-06-26T03:50:32.605Z,78.81
2019-06-26T03:52:40.233Z,78.56
2019-06-26T03:54:48.061Z,78.61
2019-06-26T03:56:55.782Z,78.21
2019-06-26T03:59:03.505Z,78.93
2019-06-26T04:01:11.336Z,77.86
2019-06-26T04:03:19.017Z,78.59
2019-06-26T04:05:26.890Z,78.36
2019-06-26T04:07:34.529Z,78.36
2019-06-26T04:09:42.216Z,78.84
2019-06-26T04:11:50.142Z,78.18
2019-06-26T04:13:57.771Z,77.94
2019-06-26T04:16:05.830Z,78.03
2019-06-26T04:18:13.257Z,77.42
2019-06-26T04:20:21.137Z,75.76
2019-06-26T04:22:28.944Z,77.17
2019-06-26T04:24:36.523Z,76.96
2019-06-26T04:26:44.122Z,77.22
2019-06-26T04:28:51.511Z,77.39
2019-06-26T04:30:58.898Z,74.74
2019-06-26T04:33:06.383Z,75.78
2019-06-26T04:35:15.232Z,76.03
2019-06-26T04:37:22.728Z,75.36
2019-06-26T04:39:30.256Z,75.60
2019-06-26T04:41:37.746Z,75.23
2019-06-26T04:43:45.256Z,76.06
2019-06-26T04:45:57.950Z,75.33
2019-06-26T04:48:02.782Z,74.58
2019-06-26T04:50:10.802Z,74.79
2019-06-26T04:52:18.587Z,75.10
2019-06-26T04:54:26.331Z,75.77
2019-06-26T04:56:34.230Z,74.36
2019-06-26T04:58:42.053Z,75.15
2019-06-26T05:00:49.664Z,74.92
2019-06-26T05:02:57.445Z,72.87
2019-06-26T05:05:05.994Z,73.92
2019-06-26T05:07:13.521Z,74.84
2019-06-26T05:09:21.344Z,74.23
2019-06-26T05:11:29.157Z,74.25
2019-06-26T05:13:36.674Z,74.45
2019-06-26T05:15:44.241Z,74.21
2019-06-26T05:17:51.938Z,73.77
2019-06-26T05:20:00.124Z,74.17
2019-06-26T05:22:08.048Z,73.93
2019-06-26T05:24:15.567Z,73.80
2019-06-26T05:26:23.179Z,73.71
2019-06-26T05:28:30.804Z,73.25
2019-06-26T05:30:38.615Z,73.08
2019-06-26T05:32:46.425Z,72.56
2019-06-26T05:34:54.109Z,73.57
2019-06-26T05:37:01.881Z,72.39
2019-06-26T05:39:10.181Z,73.46
2019-06-26T05:41:18.045Z,72.89
2019-06-26T05:43:26.110Z,71.00
2019-06-26T05:45:33.989Z,71.79
2019-06-26T05:47:41.922Z,71.87
2019-06-26T05:49:49.608Z,72.65
2019-06-26T05:51:57.345Z,72.48
2019-06-26T05:54:05.404Z,71.63
2019-06-26T05:56:13.117Z,71.59
2019-06-26T05:58:20.888Z,70.83
2019-06-26T06:00:28.820Z,71.34
2019-06-26T06:02:36.667Z,71.24
2019-06-26T06:04:44.669Z,70.62
2019-06-26T06:06:52.584Z,70.84
2019-06-26T06:09:00.262Z,70.85
2019-06-26T06:11:08.019Z,71.00
2019-06-26T06:13:15.818Z,70.44
2019-06-26T06:15:41.246Z,70.35
2019-06-26T06:17:49.084Z,70.75
2019-06-26T06:19:56.806Z,70.01
2019-06-26T06:22:04.672Z,69.87
2019-06-26T06:24:12.652Z,70.04
2019-06-26T06:26:20.476Z,69.69
2019-06-26T06:28:28.342Z,68.44
2019-06-26T06:30:36.355Z,67.68
2019-06-26T06:32:44.758Z,67.84
2019-06-26T06:34:52.591Z,68.02
2019-06-26T06:37:00.480Z,68.20
2019-06-26T06:39:09.279Z,68.12
2019-06-26T06:41:17.109Z,67.51
2019-06-26T06:43:25.019Z,66.54
2019-06-26T06:45:33.086Z,66.98
2019-06-26T06:47:40.850Z,66.33
2019-06-26T06:49:48.650Z,65.81
2019-06-26T06:51:56.485Z,66.31
2019-06-26T06:54:04.364Z,65.76
2019-06-26T06:56:12.318Z,65.26
2019-06-26T06:58:20.081Z,65.25
2019-06-26T07:00:28.355Z,66.10
2019-06-26T07:02:36.501Z,65.33
2019-06-26T07:04:44.623Z,65.98
2019-06-26T07:06:52.885Z,65.07
2019-06-26T07:09:01.283Z,64.21
2019-06-26T07:11:09.146Z,64.55
2019-06-26T07:13:16.863Z,63.62
2019-06-26T07:15:25.640Z,64.11
2019-06-26T07:17:33.724Z,63.39
2019-06-26T07:19:41.782Z,62.93
2019-06-26T07:21:49.849Z,62.97
2019-06-26T07:23:57.959Z,62.24
2019-06-26T07:26:05.944Z,61.77
2019-06-26T07:28:13.835Z,61.36
2019-06-26T07:30:22.478Z,60.51
2019-06-26T07:32:30.299Z,60.23
2019-06-26T07:34:38.168Z,61.39
2019-06-26T07:36:46.172Z,61.57
2019-06-26T07:38:54.901Z,61.50
2019-06-26T07:41:03.126Z,61.07
2019-06-26T07:43:11.258Z,61.03
2019-06-26T07:45:19.554Z,59.41
2019-06-26T07:47:41.801Z,58.87
2019-06-26T07:49:37.177Z,59.79
2019-06-26T07:51:45.060Z,58.98
2019-06-26T07:53:52.919Z,58.70
2019-06-26T07:56:42.597Z,58.31
2019-06-26T07:58:50.857Z,58.03
2019-06-26T08:00:58.546Z,59.20
2019-06-26T08:03:06.279Z,58.37
2019-06-26T08:05:14.851Z,57.82
2019-06-26T08:07:22.592Z,57.04
2019-06-26T08:09:30.266Z,55.78
2019-06-26T08:11:37.879Z,54.80
2019-06-26T08:13:45.556Z,55.30
2019-06-26T08:15:53.342Z,55.28
2019-06-26T08:18:01.712Z,55.88
2019-06-26T08:20:09.879Z,55.40
2019-06-26T08:22:17.300Z,54.45
2019-06-26T08:24:25.098Z,55.41
2019-06-26T08:26:32.936Z,55.12
2019-06-26T08:28:40.775Z,53.02
2019-06-26T08:30:48.285Z,53.22
2019-06-26T08:32:55.816Z,52.89
2019-06-26T08:35:03.915Z,53.60
2019-06-26T08:37:11.416Z,53.08
2019-06-26T08:39:18.848Z,54.06
2019-06-26T08:41:26.452Z,52.87
2019-06-26T08:43:34.417Z,50.75
2019-06-26T08:48:22.625Z,49.97
2019-06-26T08:50:23.178Z,50.15
2019-06-26T08:52:30.671Z,49.14
2019-06-26T08:54:38.248Z,50.09
2019-06-26T08:56:46.145Z,49.85
2019-06-26T08:58:53.858Z,50.60
2019-06-26T09:01:01.616Z,49.77
2019-06-26T09:03:09.215Z,49.66
2019-06-26T09:05:18.115Z,50.09
2019-06-26T09:07:25.663Z,50.67
2019-06-26T09:09:33.175Z,49.21
2019-06-26T09:11:41.134Z,48.87
2019-06-26T09:13:48.650Z,48.84
2019-06-26T09:15:56.214Z,49.35
2019-06-26T09:18:03.696Z,49.42
2019-06-26T09:20:11.731Z,49.87
2019-06-26T09:22:19.312Z,47.56
2019-06-26T09:24:27.013Z,47.91
2019-06-26T09:26:35.787Z,48.19
2019-06-26T09:28:43.428Z,49.03
2019-06-26T09:30:51.226Z,47.69
2019-06-26T09:32:58.713Z,45.99
2019-06-26T09:35:06.992Z,46.19
2019-06-26T09:37:14.541Z,45.36
2019-06-26T09:39:21.974Z,46.10
2019-06-26T09:41:29.555Z,46.03
2019-06-26T09:43:37.073Z,45.59
2019-06-26T09:45:44.574Z,45.49
2019-06-26T09:47:53.162Z,45.97
2019-06-26T09:50:00.822Z,45.31
2019-06-26T09:52:08.960Z,45.13
2019-06-26T09:54:16.448Z,45.07
2019-06-26T09:56:23.967Z,44.53
2019-06-26T09:58:31.498Z,43.09
2019-06-26T10:00:39.375Z,42.81
2019-06-26T10:02:46.808Z,43.77
2019-06-26T10:04:54.278Z,43.48
2019-06-26T10:07:02.062Z,44.77
2019-06-26T10:09:10.754Z,44.34
2019-06-26T10:11:18.340Z,43.36
2019-06-26T10:13:25.953Z,42.52
2019-06-26T10:15:34.458Z,42.95
2019-06-26T10:17:42.606Z,43.60
2019-06-26T10:19:53.895Z,43.59
2019-06-26T10:22:00.400Z,42.86
2019-06-26T10:24:08.117Z,44.48
2019-06-26T10:26:15.821Z,43.52
2019-06-26T10:28:23.560Z,43.33
2019-06-26T10:30:31.345Z,42.20
2019-06-26T10:32:38.971Z,41.66
2019-06-26T10:34:47.798Z,40.18
2019-06-26T10:36:56.206Z,40.68
2019-06-26T10:39:11.304Z,40.98
2019-06-26T10:41:23.573Z,40.63
2019-06-26T10:43:34.105Z,40.19
2019-06-26T10:45:41.625Z,40.26
2019-06-26T10:47:49.075Z,40.84
2019-06-26T10:49:56.468Z,40.67
2019-06-26T10:52:05.807Z,40.61
2019-06-26T10:54:13.403Z,41.23
2019-06-26T10:56:21.087Z,40.95
2019-06-26T10:58:28.940Z,41.20
2019-06-26T11:00:36.648Z,42.17
2019-06-26T11:02:44.249Z,42.86
2019-06-26T11:04:51.759Z,41.98
2019-06-26T11:06:59.683Z,41.93
2019-06-26T11:09:10.395Z,40.37
2019-06-26T11:11:18.072Z,40.15
2019-06-26T11:13:25.449Z,39.67
2019-06-26T11:15:33.036Z,39.36
2019-06-26T11:17:42.640Z,39.58
2019-06-26T11:19:50.119Z,39.86
2019-06-26T11:21:57.768Z,40.08
2019-06-26T11:24:05.437Z,39.45
2019-06-26T11:26:12.885Z,39.56
2019-06-26T11:28:20.368Z,39.60
2019-06-26T11:30:28.316Z,38.41
2019-06-26T11:32:35.920Z,38.30
2019-06-26T11:34:43.555Z,38.88
2019-06-26T11:37:03.066Z,39.68
2019-06-26T11:39:00.795Z,39.37
2019-06-26T11:41:08.855Z,38.24
2019-06-26T11:43:16.581Z,38.12
2019-06-26T11:45:24.381Z,36.93
2019-06-26T11:47:31.962Z,36.87
2019-06-26T11:49:39.408Z,36.60
2019-06-26T11:51:47.040Z,36.83
2019-06-26T11:53:54.527Z,37.11
2019-06-26T11:56:02.134Z,36.01
2019-06-26T11:58:09.896Z,38.42
2019-06-26T12:00:20.055Z,36.45
2019-06-26T12:02:27.566Z,36.60
2019-06-26T12:04:35.199Z,36.81
2019-06-26T12:06:45.914Z,37.42
2019-06-26T12:08:52.267Z,37.39
2019-06-26T12:11:00.079Z,36.83
2019-06-26T12:13:07.714Z,36.46
2019-06-26T12:15:18.916Z,36.89
2019-06-26T12:17:26.659Z,37.98
2019-06-26T12:19:34.551Z,38.66
2019-06-26T12:21:42.327Z,39.35
2019-06-26T12:23:50.069Z,39.28
2019-06-26T12:25:57.594Z,38.33
2019-06-26T12:28:05.483Z,38.37
2019-06-26T12:30:13.497Z,36.83
2019-06-26T12:32:21.056Z,35.47
2019-06-26T12:34:28.750Z,36.42
2019-06-26T12:36:36.607Z,37.09
2019-06-26T12:38:44.189Z,38.12
2019-06-26T12:40:51.719Z,38.54
2019-06-26T12:42:59.247Z,39.46
2019-06-26T12:45:08.229Z,37.38
2019-06-26T12:47:15.923Z,36.68
2019-06-26T12:49:23.605Z,36.86
2019-06-26T12:51:31.385Z,35.86
2019-06-26T12:53:39.005Z,37.15
2019-06-26T12:55:46.525Z,37.46
2019-06-26T12:58:02.449Z,36.29
2019-06-26T13:00:03.731Z,36.24
2019-06-26T13:02:11.515Z,34.13
2019-06-26T13:04:20.210Z,31.51
2019-06-26T13:06:28.057Z,31.39
2019-06-26T13:08:35.643Z,30.68
2019-06-26T13:10:49.661Z,29.62
2019-06-26T13:12:53.124Z,30.12
2019-06-26T13:15:00.767Z,30.50
2019-06-26T13:17:08.337Z,29.67
2019-06-26T13:19:16.114Z,30.30
2019-06-26T13:21:23.671Z,29.23
2019-06-26T13:23:31.318Z,28.87
2019-06-26T13:25:38.756Z,29.03
2019-06-26T13:27:46.484Z,29.30
2019-06-26T13:29:54.331Z,29.94
2019-06-26T13:32:02.099Z,29.53
2019-06-26T13:34:09.620Z,29.90
2019-06-26T13:36:17.034Z,29.80
2019-06-26T13:38:27.094Z,30.79
2019-06-26T13:40:34.098Z,30.16
2019-06-26T13:42:41.584Z,30.27
2019-06-26T13:45:13.579Z,30.89
2019-06-26T13:47:21.206Z,29.77
2019-06-26T13:49:28.667Z,29.51
2019-06-26T13:51:36.320Z,30.57
2019-06-26T13:53:43.925Z,30.99
2019-06-26T13:55:51.366Z,31.62
2019-06-26T13:57:58.954Z,31.42
2019-06-26T14:00:10.422Z,31.56
2019-06-26T14:02:19.928Z,30.76
2019-06-26T14:04:27.198Z,30.27
2019-06-26T14:06:35.301Z,30.41
2019-06-26T14:08:42.788Z,31.38
2019-06-26T14:10:50.332Z,30.35
2019-06-26T14:12:57.979Z,30.48
2019-06-26T14:15:06.010Z,31.13
2019-06-26T14:17:13.493Z,31.43
2019-06-26T14:19:21.110Z,30.86
2019-06-26T14:21:29.791Z,31.02
2019-06-26T14:23:38.044Z,31.46
2019-06-26T14:25:45.738Z,30.19
2019-06-26T14:27:53.989Z,29.80
2019-06-26T14:30:01.518Z,30.53
2019-06-26T14:32:08.806Z,30.72
2019-06-26T14:34:16.095Z,31.94
2019-06-26T14:36:23.653Z,31.18
2019-06-26T14:38:31.100Z,30.51
2019-06-26T14:40:38.454Z,30.88
2019-06-26T14:42:45.855Z,31.25
2019-06-26T14:44:53.436Z,30.92
2019-06-26T14:47:00.815Z,31.00
2019-06-26T14:49:08.230Z,31.46
2019-06-26T14:51:15.614Z,31.80
2019-06-26T14:53:23.901Z,30.92
2019-06-26T14:55:31.279Z,31.73
2019-06-26T14:57:39.174Z,31.45
2019-06-26T14:59:46.911Z,31.37
2019-06-26T15:01:54.378Z,31.91
2019-06-26T15:04:01.853Z,31.72
2019-06-26T15:06:16.430Z,31.77
2019-06-26T15:08:18.862Z,31.98
2019-06-26T15:10:26.518Z,32.42
2019-06-26T15:12:33.949Z,32.40
2019-06-26T15:14:42.256Z,32.79
2019-06-26T15:16:50.233Z,32.30
2019-06-26T15:18:58.125Z,32.68
2019-06-26T15:21:05.525Z,33.28
2019-06-26T15:23:12.993Z,32.95
2019-06-26T15:25:21.117Z,32.69
2019-06-26T15:27:28.614Z,32.41
2019-06-26T15:29:36.236Z,33.00
2019-06-26T15:31:44.076Z,32.70
2019-06-26T15:33:51.553Z,32.56
2019-06-26T15:35:59.222Z,33.25
2019-06-26T15:38:07.302Z,32.43
2019-06-26T15:40:15.508Z,33.18
2019-06-26T15:42:22.845Z,32.74
2019-06-26T15:44:30.372Z,32.29
2019-06-26T15:46:37.601Z,32.52
2019-06-26T15:48:44.804Z,32.51
2019-06-26T15:50:53.354Z,32.17
2019-06-26T15:53:00.861Z,31.94
2019-06-26T15:55:09.153Z,32.35
2019-06-26T15:57:16.546Z,32.29
2019-06-26T15:59:24.428Z,32.83
2019-06-26T16:01:32.633Z,32.45
2019-06-26T16:03:40.124Z,31.51
2019-06-26T16:05:47.348Z,31.45
2019-06-26T16:07:55.157Z,32.10
2019-06-26T16:10:02.964Z,31.57
2019-06-26T16:12:10.688Z,32.16
2019-06-26T16:14:18.237Z,32.48
2019-06-26T16:16:25.914Z,33.38
2019-06-26T16:18:38.368Z,33.85
2019-06-26T16:20:46.216Z,32.74
2019-06-26T16:22:53.969Z,33.07
2019-06-26T16:25:01.645Z,32.20
2019-06-26T16:27:09.371Z,30.96
2019-06-26T16:29:16.723Z,31.38
2019-06-26T16:31:24.604Z,31.75
2019-06-26T16:33:32.215Z,31.03
2019-06-26T16:35:39.581Z,31.75
2019-06-26T16:37:47.427Z,32.30
2019-06-26T16:39:56.168Z,32.08
2019-06-26T16:42:04.476Z,33.78
2019-06-26T16:44:13.150Z,32.45
2019-06-26T16:46:21.810Z,32.59
2019-06-26T16:48:30.081Z,33.15
2019-06-26T16:50:38.559Z,32.52
2019-06-26T16:52:49.526Z,33.10
2019-06-26T16:54:56.490Z,32.73
2019-06-26T16:57:04.947Z,33.25
2019-06-26T16:59:13.737Z,32.84
2019-06-26T17:01:21.339Z,33.14
2019-06-26T17:03:29.049Z,33.22
2019-06-26T17:05:37.530Z,34.62
2019-06-26T17:07:45.250Z,33.87
2019-06-26T17:09:52.820Z,33.62
2019-06-26T17:12:00.388Z,34.41
2019-06-26T17:14:08.255Z,34.58
2019-06-26T17:16:16.477Z,34.34
2019-06-26T17:18:24.652Z,33.92
2019-06-26T17:20:32.858Z,33.77
2019-06-26T17:22:40.676Z,34.32
2019-06-26T17:24:48.130Z,34.80
2019-06-26T17:26:59.285Z,35.73
2019-06-26T17:29:05.684Z,35.98
2019-06-26T17:31:13.873Z,35.74
2019-06-26T17:33:21.412Z,35.67
2019-06-26T17:35:29.223Z,35.71
2019-06-26T17:37:37.046Z,35.53
2019-06-26T17:39:44.829Z,35.82
2019-06-26T17:41:52.649Z,35.98
2019-06-26T17:44:00.305Z,37.85
2019-06-26T17:46:08.532Z,36.25
2019-06-26T17:48:16.293Z,36.22
2019-06-26T17:50:24.604Z,36.18
2019-06-26T17:52:35.611Z,36.21
2019-06-26T17:54:41.934Z,36.43
2019-06-26T17:56:50.945Z,35.86
2019-06-26T17:58:58.836Z,37.72
2019-06-26T18:01:06.833Z,37.48
2019-06-26T18:03:15.096Z,37.23
2019-06-26T18:05:22.541Z,37.12
2019-06-26T18:07:30.043Z,37.22
2019-06-26T18:09:37.637Z,37.10
2019-06-26T18:11:45.112Z,37.94
2019-06-26T18:15:54.119Z,38.96
2019-06-26T18:18:02.235Z,40.42
2019-06-26T18:20:10.377Z,40.98
2019-06-26T18:22:18.652Z,43.25
2019-06-26T18:24:26.871Z,41.50
2019-06-26T18:26:35.360Z,41.86
2019-06-26T18:28:43.270Z,42.09
2019-06-26T18:30:51.587Z,42.39
2019-06-26T18:32:59.657Z,42.27
2019-06-26T18:35:07.767Z,41.62
2019-06-26T18:37:16.806Z,42.38
2019-06-26T18:39:25.351Z,42.16
2019-06-26T18:41:43.519Z,43.54
2019-06-26T18:43:51.899Z,43.96
2019-06-26T18:45:59.941Z,43.65
2019-06-26T18:48:07.790Z,44.17
2019-06-26T18:50:15.931Z,44.03
2019-06-26T18:52:24.017Z,43.67
2019-06-26T18:54:32.090Z,44.21
2019-06-26T18:56:46.227Z,44.08
2019-06-26T18:58:57.259Z,44.58
2019-06-26T19:01:05.525Z,44.71
2019-06-26T19:03:13.395Z,44.23
2019-06-26T19:05:22.428Z,43.55
2019-06-26T19:07:31.071Z,43.99
2019-06-26T19:09:38.676Z,43.88
2019-06-26T19:11:46.549Z,44.89
2019-06-26T19:13:55.482Z,44.71
2019-06-26T19:16:04.712Z,44.78
2019-06-26T19:18:12.629Z,44.60
2019-06-26T19:20:21.346Z,44.33
2019-06-26T19:22:29.462Z,45.54
2019-06-26T19:24:37.620Z,44.83
2019-06-26T19:26:46.861Z,44.31
2019-06-26T19:28:55.080Z,44.36
2019-06-26T19:31:03.172Z,44.46
2019-06-26T19:33:11.030Z,44.72
2019-06-26T19:35:20.483Z,45.21
2019-06-26T19:37:28.455Z,45.26
2019-06-26T19:39:37.132Z,46.41
2019-06-26T19:41:44.990Z,45.84
2019-06-26T19:43:52.566Z,45.47
2019-06-26T19:46:00.718Z,45.77
2019-06-26T19:48:08.678Z,45.99
2019-06-26T19:50:17.105Z,46.09
2019-06-26T19:52:25.479Z,45.24
2019-06-26T19:54:33.813Z,45.54
2019-06-26T19:56:41.651Z,46.40
2019-06-26T19:58:49.317Z,46.35
2019-06-26T20:00:59.795Z,45.67
2019-06-26T20:03:12.099Z,45.98
2019-06-26T20:05:20.448Z,46.46
2019-06-26T20:07:28.396Z,46.91
2019-06-26T20:09:37.673Z,46.10
2019-06-26T20:11:45.641Z,45.39
2019-06-26T20:13:57.931Z,45.66
2019-06-26T20:16:08.700Z,45.25
2019-06-26T20:18:16.351Z,45.77
2019-06-26T20:20:24.362Z,45.57
2019-06-26T20:22:34.153Z,44.90
2019-06-26T20:24:44.654Z,44.76
2019-06-26T20:26:55.787Z,44.99
2019-06-26T20:29:03.644Z,44.71
2019-06-26T20:31:23.718Z,44.72
2019-06-26T20:33:31.924Z,45.96
2019-06-26T20:35:39.927Z,46.35
2019-06-26T20:37:48.119Z,46.55
2019-06-26T20:39:56.134Z,45.94
2019-06-26T20:42:03.990Z,46.11
2019-06-26T20:44:11.716Z,46.39
2019-06-26T20:46:19.591Z,46.69
2019-06-26T20:48:27.410Z,47.68
2019-06-26T20:50:35.503Z,47.99
2019-06-26T20:52:43.432Z,48.47
2019-06-26T20:55:00.962Z,48.58
2019-06-26T20:57:01.253Z,47.90
2019-06-26T20:59:21.836Z,48.63
2019-06-26T21:01:32.331Z,47.44
2019-06-26T21:03:43.660Z,47.70
2019-06-26T21:06:02.975Z,46.30
2019-06-26T21:08:13.872Z,46.87
2019-06-26T21:10:22.252Z,46.66
2019-06-26T21:12:30.186Z,46.57
2019-06-26T21:14:37.545Z,47.92
2019-06-26T21:16:44.965Z,47.99
2019-06-26T21:18:52.243Z,47.59
2019-06-26T21:21:00.091Z,48.80
2019-06-26T21:23:23.772Z,48.20
2019-06-26T21:25:33.337Z,49.30
2019-06-26T21:27:45.346Z,48.68
2019-06-26T21:29:52.689Z,47.14
2019-06-26T21:32:00.081Z,48.48
2019-06-26T21:34:07.459Z,48.50
2019-06-26T21:36:15.526Z,48.70
2019-06-26T21:38:22.718Z,48.04
2019-06-26T21:40:29.904Z,48.62
2019-06-26T21:42:37.381Z,48.46
2019-06-26T21:44:44.693Z,48.56
2019-06-26T21:46:51.949Z,48.69
2019-06-26T21:48:59.277Z,49.08
2019-06-26T21:51:06.637Z,49.28
2019-06-26T21:53:13.797Z,49.30
2019-06-26T21:55:33.747Z,49.45
2019-06-26T21:57:31.462Z,49.31
2019-06-26T21:59:38.707Z,49.11
2019-06-26T22:01:46.112Z,49.33
2019-06-26T22:03:53.574Z,49.43
2019-06-26T22:06:01.094Z,48.79
2019-06-26T22:08:13.426Z,48.79
2019-06-26T22:10:17.837Z,49.00
2019-06-26T22:12:41.671Z,49.63
2019-06-26T22:14:49.010Z,49.76
2019-06-26T22:17:01.273Z,50.14
2019-06-26T22:19:09.727Z,50.54
2019-06-26T22:21:17.086Z,51.02
2019-06-26T22:23:24.457Z,51.22
2019-06-26T22:25:31.629Z,50.49
2019-06-26T22:27:44.428Z,50.73
2019-06-26T22:29:48.802Z,50.65
2019-06-26T22:31:56.352Z,51.10
2019-06-26T22:34:04.116Z,51.18
2019-06-26T22:36:20.151Z,51.17
2019-06-26T22:38:32.095Z,51.53
2019-06-26T22:40:39.412Z,51.36
2019-06-26T22:42:46.745Z,51.92
2019-06-26T22:44:54.013Z,56.25
2019-06-26T22:47:01.349Z,63.27
2019-06-26T22:49:27.021Z,68.64
2019-06-26T22:51:34.476Z,71.44
2019-06-26T22:53:41.750Z,75.18
2019-06-26T22:56:17.248Z,77.93
2019-06-26T22:58:35.264Z,79.33
2019-06-26T23:00:42.896Z,78.85
2019-06-26T23:02:50.205Z,79.66
2019-06-26T23:05:01.019Z,80.08
2019-06-26T23:07:16.678Z,78.15
2019-06-26T23:09:24.002Z,78.53
2019-06-26T23:11:31.178Z,78.68
2019-06-26T23:13:39.902Z,79.32
2019-06-26T23:15:47.334Z,78.71
2019-06-26T23:17:54.936Z,80.54
2019-06-26T23:20:06.473Z,79.61
2019-06-26T23:22:15.894Z,78.65
2019-06-26T23:24:30.594Z,80.38
2019-06-26T23:26:48.874Z,81.97
2019-06-26T23:29:16.629Z,78.91
2019-06-26T23:31:17.121Z,79.76
2019-06-26T23:33:24.585Z,78.53
2019-06-26T23:35:32.365Z,78.43
2019-06-26T23:37:42.906Z,82.09
2019-06-26T23:39:50.591Z,79.49
2019-06-26T23:41:57.952Z,79.53
2019-06-26T23:44:05.573Z,81.16
2019-06-26T23:46:13.277Z,81.04
2019-06-26T23:48:21.029Z,83.55
2019-06-26T23:50:28.559Z,82.05
2019-06-26T23:52:35.982Z,82.92
2019-06-26T23:54:43.429Z,80.05
2019-06-26T23:56:56.392Z,79.75
2019-06-26T23:59:09.219Z,79.63
